sensor_id;sensor_type;location;lat;lon;timestamp;temperature;humidity
10304;DHT22;5197;48.152;8.590;2024-02-26T00:02:00;5.40;1.00
10304;DHT22;5197;48.152;8.590;2024-02-26T00:04:47;5.40;1.00
10304;DHT22;5197;48.152;8.590;2024-02-26T00:07:32;5.40;1.00
10304;DHT22;5197;48.152;8.590;2024-02-26T00:10:18;5.40;1.00
10304;DHT22;5197;48.152;8.590;2024-02-26T00:13:03;5.40;1.00
10304;DHT22;5197;48.152;8.590;2024-02-26T00:15:50;5.40;1.00
10304;DHT22;5197;48.152;8.590;2024-02-26T00:18:36;5.30;1.00
10304;DHT22;5197;48.152;8.590;2024-02-26T00:21:21;5.30;1.00
10304;DHT22;5197;48.152;8.590;2024-02-26T00:24:07;5.20;1.00
10304;DHT22;5197;48.152;8.590;2024-02-26T00:26:52;5.20;1.00
10304;DHT22;5197;48.152;8.590;2024-02-26T00:29:40;5.30;1.00
10304;DHT22;5197;48.152;8.590;2024-02-26T00:32:25;5.30;1.00
10304;DHT22;5197;48.152;8.590;2024-02-26T00:35:11;5.30;1.00
10304;DHT22;5197;48.152;8.590;2024-02-26T00:37:57;5.30;1.00
10304;DHT22;5197;48.152;8.590;2024-02-26T00:40:44;5.30;1.00
10304;DHT22;5197;48.152;8.590;2024-02-26T00:43:29;5.30;1.00
10304;DHT22;5197;48.152;8.590;2024-02-26T00:46:15;5.30;1.00
10304;DHT22;5197;48.152;8.590;2024-02-26T00:49:01;5.30;1.00
10304;DHT22;5197;48.152;8.590;2024-02-26T00:51:47;5.20;1.00
10304;DHT22;5197;48.152;8.590;2024-02-26T00:54:33;5.30;1.00
10304;DHT22;5197;48.152;8.590;2024-02-26T00:57:18;5.30;1.00
10304;DHT22;5197;48.152;8.590;2024-02-26T01:00:04;5.30;1.00
10304;DHT22;5197;48.152;8.590;2024-02-26T01:02:50;5.30;1.00
10304;DHT22;5197;48.152;8.590;2024-02-26T01:05:36;5.20;1.00
10304;DHT22;5197;48.152;8.590;2024-02-26T01:08:23;5.20;1.00
10304;DHT22;5197;48.152;8.590;2024-02-26T01:11:08;5.20;1.00
10304;DHT22;5197;48.152;8.590;2024-02-26T01:13:54;5.20;1.00
10304;DHT22;5197;48.152;8.590;2024-02-26T01:16:42;5.20;1.00
10304;DHT22;5197;48.152;8.590;2024-02-26T01:19:27;4.90;1.00
10304;DHT22;5197;48.152;8.590;2024-02-26T01:22:13;5.20;1.00
10304;DHT22;5197;48.152;8.590;2024-02-26T01:24:58;5.10;1.00
10304;DHT22;5197;48.152;8.590;2024-02-26T01:27:44;5.10;1.00
10304;DHT22;5197;48.152;8.590;2024-02-26T01:30:29;5.10;1.00
10304;DHT22;5197;48.152;8.590;2024-02-26T01:33:15;5.10;1.00
10304;DHT22;5197;48.152;8.590;2024-02-26T01:36:01;5.20;1.00
10304;DHT22;5197;48.152;8.590;2024-02-26T01:38:47;5.30;1.00
10304;DHT22;5197;48.152;8.590;2024-02-26T01:41:32;5.20;1.00
10304;DHT22;5197;48.152;8.590;2024-02-26T01:44:18;5.20;1.00
10304;DHT22;5197;48.152;8.590;2024-02-26T01:47:04;5.20;1.00
10304;DHT22;5197;48.152;8.590;2024-02-26T01:49:50;5.20;1.00
10304;DHT22;5197;48.152;8.590;2024-02-26T01:52:36;5.20;1.00
10304;DHT22;5197;48.152;8.590;2024-02-26T01:55:23;5.20;1.00
10304;DHT22;5197;48.152;8.590;2024-02-26T01:58:10;5.20;1.00
10304;DHT22;5197;48.152;8.590;2024-02-26T02:00:55;5.20;1.00
10304;DHT22;5197;48.152;8.590;2024-02-26T02:03:41;5.20;1.00
10304;DHT22;5197;48.152;8.590;2024-02-26T02:06:27;5.30;1.00
10304;DHT22;5197;48.152;8.590;2024-02-26T02:09:15;5.40;1.00
10304;DHT22;5197;48.152;8.590;2024-02-26T02:12:00;5.50;1.00
10304;DHT22;5197;48.152;8.590;2024-02-26T02:14:46;5.50;1.00
10304;DHT22;5197;48.152;8.590;2024-02-26T02:17:38;5.70;1.00
10304;DHT22;5197;48.152;8.590;2024-02-26T02:20:26;5.70;1.00
10304;DHT22;5197;48.152;8.590;2024-02-26T02:23:13;5.70;1.00
10304;DHT22;5197;48.152;8.590;2024-02-26T02:25:59;5.60;1.00
10304;DHT22;5197;48.152;8.590;2024-02-26T02:28:46;5.50;1.00
10304;DHT22;5197;48.152;8.590;2024-02-26T02:31:32;5.50;1.00
10304;DHT22;5197;48.152;8.590;2024-02-26T02:34:18;5.50;1.00
10304;DHT22;5197;48.152;8.590;2024-02-26T02:37:04;5.40;1.00
10304;DHT22;5197;48.152;8.590;2024-02-26T02:39:49;5.40;1.00
10304;DHT22;5197;48.152;8.590;2024-02-26T02:42:35;5.30;1.00
10304;DHT22;5197;48.152;8.590;2024-02-26T02:45:20;5.30;1.00
10304;DHT22;5197;48.152;8.590;2024-02-26T02:48:06;5.30;1.00
10304;DHT22;5197;48.152;8.590;2024-02-26T02:50:52;5.20;1.00
10304;DHT22;5197;48.152;8.590;2024-02-26T02:53:37;5.30;1.00
10304;DHT22;5197;48.152;8.590;2024-02-26T02:56:23;5.20;1.00
10304;DHT22;5197;48.152;8.590;2024-02-26T02:59:09;5.30;1.00
10304;DHT22;5197;48.152;8.590;2024-02-26T03:01:54;5.30;1.00
10304;DHT22;5197;48.152;8.590;2024-02-26T03:04:40;5.30;1.00
10304;DHT22;5197;48.152;8.590;2024-02-26T03:07:25;5.20;1.00
10304;DHT22;5197;48.152;8.590;2024-02-26T03:10:11;5.20;1.00
10304;DHT22;5197;48.152;8.590;2024-02-26T03:12:56;5.20;1.00
10304;DHT22;5197;48.152;8.590;2024-02-26T03:15:42;5.20;1.00
10304;DHT22;5197;48.152;8.590;2024-02-26T03:18:28;5.20;1.00
10304;DHT22;5197;48.152;8.590;2024-02-26T03:21:13;5.20;1.00
10304;DHT22;5197;48.152;8.590;2024-02-26T03:23:59;5.30;1.00
10304;DHT22;5197;48.152;8.590;2024-02-26T03:26:44;5.20;1.00
10304;DHT22;5197;48.152;8.590;2024-02-26T03:29:30;5.30;1.00
10304;DHT22;5197;48.152;8.590;2024-02-26T03:32:16;5.20;1.00
10304;DHT22;5197;48.152;8.590;2024-02-26T03:35:01;5.30;1.00
10304;DHT22;5197;48.152;8.590;2024-02-26T03:40:35;5.30;1.00
10304;DHT22;5197;48.152;8.590;2024-02-26T03:43:21;5.30;1.00
10304;DHT22;5197;48.152;8.590;2024-02-26T03:46:10;5.30;1.00
10304;DHT22;5197;48.152;8.590;2024-02-26T03:48:59;5.20;1.00
10304;DHT22;5197;48.152;8.590;2024-02-26T03:51:44;5.20;1.00
10304;DHT22;5197;48.152;8.590;2024-02-26T03:54:30;5.20;1.00
10304;DHT22;5197;48.152;8.590;2024-02-26T03:57:16;5.10;1.00
10304;DHT22;5197;48.152;8.590;2024-02-26T04:00:01;5.10;1.00
10304;DHT22;5197;48.152;8.590;2024-02-26T04:02:47;5.20;1.00
10304;DHT22;5197;48.152;8.590;2024-02-26T04:05:33;5.10;1.00
10304;DHT22;5197;48.152;8.590;2024-02-26T04:08:18;5.10;1.00
10304;DHT22;5197;48.152;8.590;2024-02-26T04:11:04;5.10;1.00
10304;DHT22;5197;48.152;8.590;2024-02-26T04:13:53;5.20;1.00
10304;DHT22;5197;48.152;8.590;2024-02-26T04:16:38;5.20;1.00
10304;DHT22;5197;48.152;8.590;2024-02-26T04:19:24;5.20;1.00
10304;DHT22;5197;48.152;8.590;2024-02-26T04:22:10;5.10;1.00
10304;DHT22;5197;48.152;8.590;2024-02-26T04:24:55;5.20;1.00
10304;DHT22;5197;48.152;8.590;2024-02-26T04:27:41;5.20;1.00
10304;DHT22;5197;48.152;8.590;2024-02-26T04:30:26;5.20;1.00
10304;DHT22;5197;48.152;8.590;2024-02-26T04:33:12;5.20;1.00
10304;DHT22;5197;48.152;8.590;2024-02-26T04:35:58;5.20;1.00
10304;DHT22;5197;48.152;8.590;2024-02-26T04:38:44;5.20;1.00
10304;DHT22;5197;48.152;8.590;2024-02-26T04:41:29;5.10;1.00
10304;DHT22;5197;48.152;8.590;2024-02-26T04:44:15;5.10;1.00
10304;DHT22;5197;48.152;8.590;2024-02-26T04:47:00;5.10;1.00
10304;DHT22;5197;48.152;8.590;2024-02-26T04:49:47;5.10;1.00
10304;DHT22;5197;48.152;8.590;2024-02-26T04:52:32;5.10;1.00
10304;DHT22;5197;48.152;8.590;2024-02-26T04:55:18;5.10;1.00
10304;DHT22;5197;48.152;8.590;2024-02-26T04:58:03;5.20;1.00
10304;DHT22;5197;48.152;8.590;2024-02-26T05:00:49;5.20;1.00
10304;DHT22;5197;48.152;8.590;2024-02-26T05:03:35;5.20;1.00
10304;DHT22;5197;48.152;8.590;2024-02-26T05:06:21;5.20;1.00
10304;DHT22;5197;48.152;8.590;2024-02-26T05:09:07;5.10;1.00
10304;DHT22;5197;48.152;8.590;2024-02-26T05:11:53;5.10;1.00
10304;DHT22;5197;48.152;8.590;2024-02-26T05:14:39;5.10;1.00
10304;DHT22;5197;48.152;8.590;2024-02-26T05:17:25;5.10;1.00
10304;DHT22;5197;48.152;8.590;2024-02-26T05:20:11;5.10;1.00
10304;DHT22;5197;48.152;8.590;2024-02-26T05:22:56;5.10;1.00
10304;DHT22;5197;48.152;8.590;2024-02-26T05:25:44;5.10;1.00
10304;DHT22;5197;48.152;8.590;2024-02-26T05:28:32;5.10;1.00
10304;DHT22;5197;48.152;8.590;2024-02-26T05:31:17;5.10;1.00
10304;DHT22;5197;48.152;8.590;2024-02-26T05:34:05;5.10;1.00
10304;DHT22;5197;48.152;8.590;2024-02-26T05:36:50;5.00;1.00
10304;DHT22;5197;48.152;8.590;2024-02-26T05:39:36;5.00;1.00
10304;DHT22;5197;48.152;8.590;2024-02-26T05:42:21;5.00;1.00
10304;DHT22;5197;48.152;8.590;2024-02-26T05:45:07;5.00;1.00
10304;DHT22;5197;48.152;8.590;2024-02-26T05:47:53;4.90;1.00
10304;DHT22;5197;48.152;8.590;2024-02-26T05:50:40;5.00;1.00
10304;DHT22;5197;48.152;8.590;2024-02-26T05:53:26;4.90;1.00
10304;DHT22;5197;48.152;8.590;2024-02-26T05:56:11;4.90;1.00
10304;DHT22;5197;48.152;8.590;2024-02-26T05:58:57;4.90;1.00
10304;DHT22;5197;48.152;8.590;2024-02-26T06:01:43;5.00;1.00
10304;DHT22;5197;48.152;8.590;2024-02-26T06:04:28;5.00;1.00
10304;DHT22;5197;48.152;8.590;2024-02-26T06:07:15;5.00;1.00
10304;DHT22;5197;48.152;8.590;2024-02-26T06:10:02;5.00;1.00
10304;DHT22;5197;48.152;8.590;2024-02-26T06:12:49;5.10;1.00
10304;DHT22;5197;48.152;8.590;2024-02-26T06:15:35;5.00;1.00
10304;DHT22;5197;48.152;8.590;2024-02-26T06:18:21;5.00;1.00
10304;DHT22;5197;48.152;8.590;2024-02-26T06:21:09;5.00;1.00
10304;DHT22;5197;48.152;8.590;2024-02-26T06:23:55;5.10;1.00
10304;DHT22;5197;48.152;8.590;2024-02-26T06:26:41;5.10;1.00
10304;DHT22;5197;48.152;8.590;2024-02-26T06:29:26;5.10;1.00
10304;DHT22;5197;48.152;8.590;2024-02-26T06:32:14;5.10;1.00
10304;DHT22;5197;48.152;8.590;2024-02-26T06:34:59;5.10;1.00
10304;DHT22;5197;48.152;8.590;2024-02-26T06:37:45;5.10;1.00
10304;DHT22;5197;48.152;8.590;2024-02-26T06:40:30;5.10;1.00
10304;DHT22;5197;48.152;8.590;2024-02-26T06:43:16;5.20;1.00
10304;DHT22;5197;48.152;8.590;2024-02-26T06:46:01;5.20;1.00
10304;DHT22;5197;48.152;8.590;2024-02-26T06:48:51;5.20;1.00
10304;DHT22;5197;48.152;8.590;2024-02-26T06:51:40;5.20;1.20
10304;DHT22;5197;48.152;8.590;2024-02-26T06:54:25;5.20;1.30
10304;DHT22;5197;48.152;8.590;2024-02-26T06:57:11;5.20;1.30
10304;DHT22;5197;48.152;8.590;2024-02-26T06:59:56;5.20;1.50
10304;DHT22;5197;48.152;8.590;2024-02-26T07:02:44;5.20;1.60
10304;DHT22;5197;48.152;8.590;2024-02-26T07:05:30;5.10;1.90
10304;DHT22;5197;48.152;8.590;2024-02-26T07:08:15;5.10;1.90
10304;DHT22;5197;48.152;8.590;2024-02-26T07:11:01;5.10;2.00
10304;DHT22;5197;48.152;8.590;2024-02-26T07:13:47;5.10;2.00
10304;DHT22;5197;48.152;8.590;2024-02-26T07:16:32;5.10;2.20
10304;DHT22;5197;48.152;8.590;2024-02-26T07:19:18;5.10;2.30
10304;DHT22;5197;48.152;8.590;2024-02-26T07:22:03;5.10;2.40
10304;DHT22;5197;48.152;8.590;2024-02-26T07:24:49;5.10;2.50
10304;DHT22;5197;48.152;8.590;2024-02-26T07:27:34;5.10;2.50
10304;DHT22;5197;48.152;8.590;2024-02-26T07:30:20;5.20;2.70
10304;DHT22;5197;48.152;8.590;2024-02-26T07:33:06;5.20;2.80
10304;DHT22;5197;48.152;8.590;2024-02-26T07:35:53;5.20;2.80
10304;DHT22;5197;48.152;8.590;2024-02-26T07:38:39;5.30;2.90
10304;DHT22;5197;48.152;8.590;2024-02-26T07:41:28;5.30;3.10
10304;DHT22;5197;48.152;8.590;2024-02-26T07:44:14;5.30;3.20
10304;DHT22;5197;48.152;8.590;2024-02-26T07:46:59;5.30;3.30
10304;DHT22;5197;48.152;8.590;2024-02-26T07:49:45;5.40;3.40
10304;DHT22;5197;48.152;8.590;2024-02-26T07:52:30;5.50;3.30
10304;DHT22;5197;48.152;8.590;2024-02-26T07:55:16;5.50;3.20
10304;DHT22;5197;48.152;8.590;2024-02-26T07:58:01;5.50;2.10
10304;DHT22;5197;48.152;8.590;2024-02-26T08:00:49;5.60;2.90
10304;DHT22;5197;48.152;8.590;2024-02-26T08:03:34;5.60;2.90
10304;DHT22;5197;48.152;8.590;2024-02-26T08:06:23;5.60;3.00
10304;DHT22;5197;48.152;8.590;2024-02-26T08:09:09;5.60;3.20
10304;DHT22;5197;48.152;8.590;2024-02-26T08:11:54;5.60;3.30
10304;DHT22;5197;48.152;8.590;2024-02-26T08:14:40;5.50;3.90
10304;DHT22;5197;48.152;8.590;2024-02-26T08:17:26;5.50;5.20
10304;DHT22;5197;48.152;8.590;2024-02-26T08:20:12;5.50;6.70
10304;DHT22;5197;48.152;8.590;2024-02-26T08:22:58;5.40;7.10
10304;DHT22;5197;48.152;8.590;2024-02-26T08:25:43;5.40;6.90
10304;DHT22;5197;48.152;8.590;2024-02-26T08:28:29;5.50;6.70
10304;DHT22;5197;48.152;8.590;2024-02-26T08:31:15;5.50;6.20
10304;DHT22;5197;48.152;8.590;2024-02-26T08:34:00;5.60;6.60
10304;DHT22;5197;48.152;8.590;2024-02-26T08:36:46;5.70;5.70
10304;DHT22;5197;48.152;8.590;2024-02-26T08:39:34;5.80;5.40
10304;DHT22;5197;48.152;8.590;2024-02-26T08:42:19;5.90;5.30
10304;DHT22;5197;48.152;8.590;2024-02-26T08:45:05;5.90;5.10
10304;DHT22;5197;48.152;8.590;2024-02-26T08:47:52;5.90;5.00
10304;DHT22;5197;48.152;8.590;2024-02-26T08:50:37;6.00;5.00
10304;DHT22;5197;48.152;8.590;2024-02-26T08:53:23;6.10;5.00
10304;DHT22;5197;48.152;8.590;2024-02-26T08:56:20;6.20;4.90
10304;DHT22;5197;48.152;8.590;2024-02-26T08:59:06;6.20;5.00
10304;DHT22;5197;48.152;8.590;2024-02-26T09:01:52;6.30;5.20
10304;DHT22;5197;48.152;8.590;2024-02-26T09:04:38;6.50;5.20
10304;DHT22;5197;48.152;8.590;2024-02-26T09:07:23;6.60;5.10
10304;DHT22;5197;48.152;8.590;2024-02-26T09:10:09;6.70;4.90
10304;DHT22;5197;48.152;8.590;2024-02-26T09:12:55;6.90;4.80
10304;DHT22;5197;48.152;8.590;2024-02-26T09:15:41;7.00;4.70
10304;DHT22;5197;48.152;8.590;2024-02-26T09:18:27;7.20;4.40
10304;DHT22;5197;48.152;8.590;2024-02-26T09:21:14;7.30;3.80
10304;DHT22;5197;48.152;8.590;2024-02-26T09:24:00;7.40;3.70
10304;DHT22;5197;48.152;8.590;2024-02-26T09:26:46;7.30;3.40
10304;DHT22;5197;48.152;8.590;2024-02-26T09:29:31;7.40;3.10
10304;DHT22;5197;48.152;8.590;2024-02-26T09:32:18;7.50;2.80
10304;DHT22;5197;48.152;8.590;2024-02-26T09:35:04;7.50;2.60
10304;DHT22;5197;48.152;8.590;2024-02-26T09:37:50;7.60;2.40
10304;DHT22;5197;48.152;8.590;2024-02-26T09:40:36;7.70;2.10
10304;DHT22;5197;48.152;8.590;2024-02-26T09:43:23;7.80;1.90
10304;DHT22;5197;48.152;8.590;2024-02-26T09:46:09;7.80;1.60
10304;DHT22;5197;48.152;8.590;2024-02-26T09:48:55;7.90;1.40
10304;DHT22;5197;48.152;8.590;2024-02-26T09:51:41;7.90;1.30
10304;DHT22;5197;48.152;8.590;2024-02-26T09:54:28;8.00;1.10
10304;DHT22;5197;48.152;8.590;2024-02-26T09:57:15;8.00;1.00
10304;DHT22;5197;48.152;8.590;2024-02-26T10:00:03;8.00;1.00
10304;DHT22;5197;48.152;8.590;2024-02-26T10:02:51;8.00;1.00
10304;DHT22;5197;48.152;8.590;2024-02-26T10:05:37;7.90;1.00
10304;DHT22;5197;48.152;8.590;2024-02-26T10:08:23;7.90;1.00
10304;DHT22;5197;48.152;8.590;2024-02-26T10:11:10;7.90;1.00
10304;DHT22;5197;48.152;8.590;2024-02-26T10:13:55;8.00;1.00
10304;DHT22;5197;48.152;8.590;2024-02-26T10:16:41;8.10;1.00
10304;DHT22;5197;48.152;8.590;2024-02-26T10:19:29;8.10;1.00
10304;DHT22;5197;48.152;8.590;2024-02-26T10:22:16;8.20;1.00
10304;DHT22;5197;48.152;8.590;2024-02-26T10:25:02;8.20;1.00
10304;DHT22;5197;48.152;8.590;2024-02-26T10:27:49;8.30;1.00
10304;DHT22;5197;48.152;8.590;2024-02-26T10:30:36;8.20;1.00
10304;DHT22;5197;48.152;8.590;2024-02-26T10:33:22;8.20;1.00
10304;DHT22;5197;48.152;8.590;2024-02-26T10:36:08;8.30;1.00
10304;DHT22;5197;48.152;8.590;2024-02-26T10:38:55;8.40;1.00
10304;DHT22;5197;48.152;8.590;2024-02-26T10:41:41;8.50;1.00
10304;DHT22;5197;48.152;8.590;2024-02-26T10:44:27;8.70;1.00
10304;DHT22;5197;48.152;8.590;2024-02-26T10:47:12;8.80;1.00
10304;DHT22;5197;48.152;8.590;2024-02-26T10:49:58;8.90;1.00
10304;DHT22;5197;48.152;8.590;2024-02-26T10:52:44;9.00;1.00
10304;DHT22;5197;48.152;8.590;2024-02-26T10:55:31;9.00;1.00
10304;DHT22;5197;48.152;8.590;2024-02-26T10:58:19;9.00;1.00
10304;DHT22;5197;48.152;8.590;2024-02-26T11:01:05;9.10;1.00
10304;DHT22;5197;48.152;8.590;2024-02-26T11:03:52;9.10;1.00
10304;DHT22;5197;48.152;8.590;2024-02-26T11:06:38;9.30;1.00
10304;DHT22;5197;48.152;8.590;2024-02-26T11:09:25;9.30;1.00
10304;DHT22;5197;48.152;8.590;2024-02-26T11:12:12;9.40;1.00
10304;DHT22;5197;48.152;8.590;2024-02-26T11:14:58;9.50;1.00
10304;DHT22;5197;48.152;8.590;2024-02-26T11:17:47;9.60;1.00
10304;DHT22;5197;48.152;8.590;2024-02-26T11:20:33;9.70;1.00
10304;DHT22;5197;48.152;8.590;2024-02-26T11:23:19;9.80;1.00
10304;DHT22;5197;48.152;8.590;2024-02-26T11:26:06;9.80;1.00
10304;DHT22;5197;48.152;8.590;2024-02-26T11:28:52;9.70;1.00
10304;DHT22;5197;48.152;8.590;2024-02-26T11:31:39;9.80;1.00
10304;DHT22;5197;48.152;8.590;2024-02-26T11:34:25;9.70;1.00
10304;DHT22;5197;48.152;8.590;2024-02-26T11:37:12;9.80;1.00
10304;DHT22;5197;48.152;8.590;2024-02-26T11:39:59;9.80;1.00
10304;DHT22;5197;48.152;8.590;2024-02-26T11:42:47;9.80;1.00
10304;DHT22;5197;48.152;8.590;2024-02-26T11:48:25;10.10;1.00
10304;DHT22;5197;48.152;8.590;2024-02-26T11:51:13;10.10;1.00
10304;DHT22;5197;48.152;8.590;2024-02-26T11:53:59;10.30;1.00
10304;DHT22;5197;48.152;8.590;2024-02-26T11:56:45;10.10;1.00
10304;DHT22;5197;48.152;8.590;2024-02-26T11:59:38;10.00;1.00
10304;DHT22;5197;48.152;8.590;2024-02-26T12:02:51;10.00;1.00
10304;DHT22;5197;48.152;8.590;2024-02-26T12:05:43;10.00;1.00
10304;DHT22;5197;48.152;8.590;2024-02-26T12:08:29;10.00;1.00
10304;DHT22;5197;48.152;8.590;2024-02-26T12:11:15;9.90;1.00
10304;DHT22;5197;48.152;8.590;2024-02-26T12:14:00;9.90;1.00
10304;DHT22;5197;48.152;8.590;2024-02-26T12:16:46;9.90;1.00
10304;DHT22;5197;48.152;8.590;2024-02-26T12:19:33;10.00;1.00
10304;DHT22;5197;48.152;8.590;2024-02-26T12:22:20;10.00;1.00
10304;DHT22;5197;48.152;8.590;2024-02-26T12:25:08;10.00;1.00
10304;DHT22;5197;48.152;8.590;2024-02-26T12:27:55;10.00;1.00
10304;DHT22;5197;48.152;8.590;2024-02-26T12:30:40;10.00;1.00
10304;DHT22;5197;48.152;8.590;2024-02-26T12:33:26;10.10;1.00
10304;DHT22;5197;48.152;8.590;2024-02-26T12:36:13;10.20;1.00
10304;DHT22;5197;48.152;8.590;2024-02-26T12:38:58;10.30;1.00
10304;DHT22;5197;48.152;8.590;2024-02-26T12:41:45;10.30;1.00
10304;DHT22;5197;48.152;8.590;2024-02-26T12:44:35;10.30;1.00
10304;DHT22;5197;48.152;8.590;2024-02-26T12:47:20;10.40;1.00
10304;DHT22;5197;48.152;8.590;2024-02-26T12:50:06;10.30;1.00
10304;DHT22;5197;48.152;8.590;2024-02-26T12:52:54;10.40;1.00
10304;DHT22;5197;48.152;8.590;2024-02-26T12:55:40;10.30;1.00
10304;DHT22;5197;48.152;8.590;2024-02-26T12:58:26;10.30;1.00
10304;DHT22;5197;48.152;8.590;2024-02-26T13:01:15;10.50;1.00
10304;DHT22;5197;48.152;8.590;2024-02-26T13:04:02;10.60;1.00
10304;DHT22;5197;48.152;8.590;2024-02-26T13:06:52;10.70;1.00
10304;DHT22;5197;48.152;8.590;2024-02-26T13:09:38;10.70;1.00
10304;DHT22;5197;48.152;8.590;2024-02-26T13:12:24;10.70;1.00
10304;DHT22;5197;48.152;8.590;2024-02-26T13:15:14;10.60;1.00
10304;DHT22;5197;48.152;8.590;2024-02-26T13:18:12;10.70;1.00
10304;DHT22;5197;48.152;8.590;2024-02-26T13:21:12;10.60;1.00
10304;DHT22;5197;48.152;8.590;2024-02-26T13:23:58;10.60;1.00
10304;DHT22;5197;48.152;8.590;2024-02-26T13:26:44;10.60;1.00
10304;DHT22;5197;48.152;8.590;2024-02-26T13:29:30;10.70;1.00
10304;DHT22;5197;48.152;8.590;2024-02-26T13:32:16;10.70;1.00
10304;DHT22;5197;48.152;8.590;2024-02-26T13:35:12;10.80;1.00
10304;DHT22;5197;48.152;8.590;2024-02-26T13:37:58;10.90;1.00
10304;DHT22;5197;48.152;8.590;2024-02-26T13:40:44;10.90;1.00
10304;DHT22;5197;48.152;8.590;2024-02-26T13:43:29;10.90;1.00
10304;DHT22;5197;48.152;8.590;2024-02-26T13:46:15;11.00;1.00
10304;DHT22;5197;48.152;8.590;2024-02-26T13:49:00;11.00;1.00
10304;DHT22;5197;48.152;8.590;2024-02-26T13:51:46;11.10;1.00
10304;DHT22;5197;48.152;8.590;2024-02-26T13:54:32;11.10;1.00
10304;DHT22;5197;48.152;8.590;2024-02-26T13:57:19;11.10;1.00
10304;DHT22;5197;48.152;8.590;2024-02-26T14:00:05;11.30;1.00
10304;DHT22;5197;48.152;8.590;2024-02-26T14:02:52;11.40;1.00
10304;DHT22;5197;48.152;8.590;2024-02-26T14:05:37;11.20;1.00
10304;DHT22;5197;48.152;8.590;2024-02-26T14:08:23;11.20;1.00
10304;DHT22;5197;48.152;8.590;2024-02-26T14:11:09;11.20;1.00
10304;DHT22;5197;48.152;8.590;2024-02-26T14:13:55;11.40;1.00
10304;DHT22;5197;48.152;8.590;2024-02-26T14:16:41;11.30;1.00
10304;DHT22;5197;48.152;8.590;2024-02-26T14:19:26;11.20;1.00
10304;DHT22;5197;48.152;8.590;2024-02-26T14:22:12;11.10;1.00
10304;DHT22;5197;48.152;8.590;2024-02-26T14:24:59;11.10;1.00
10304;DHT22;5197;48.152;8.590;2024-02-26T14:27:45;11.20;1.00
10304;DHT22;5197;48.152;8.590;2024-02-26T14:30:31;11.20;1.00
10304;DHT22;5197;48.152;8.590;2024-02-26T14:33:16;11.10;1.00
10304;DHT22;5197;48.152;8.590;2024-02-26T14:36:02;11.50;1.00
10304;DHT22;5197;48.152;8.590;2024-02-26T14:38:48;11.00;1.00
10304;DHT22;5197;48.152;8.590;2024-02-26T14:41:34;11.10;1.00
10304;DHT22;5197;48.152;8.590;2024-02-26T14:44:19;11.00;1.00
10304;DHT22;5197;48.152;8.590;2024-02-26T14:47:05;11.10;1.00
10304;DHT22;5197;48.152;8.590;2024-02-26T14:49:50;11.10;1.00
10304;DHT22;5197;48.152;8.590;2024-02-26T14:52:37;11.00;1.00
10304;DHT22;5197;48.152;8.590;2024-02-26T14:55:22;10.90;1.00
10304;DHT22;5197;48.152;8.590;2024-02-26T14:58:08;10.90;1.00
10304;DHT22;5197;48.152;8.590;2024-02-26T15:00:56;10.90;1.00
10304;DHT22;5197;48.152;8.590;2024-02-26T15:03:42;11.00;1.00
10304;DHT22;5197;48.152;8.590;2024-02-26T15:06:27;11.00;1.00
10304;DHT22;5197;48.152;8.590;2024-02-26T15:09:13;11.00;1.00
10304;DHT22;5197;48.152;8.590;2024-02-26T15:11:58;10.90;1.00
10304;DHT22;5197;48.152;8.590;2024-02-26T15:14:44;10.80;1.00
10304;DHT22;5197;48.152;8.590;2024-02-26T15:17:30;10.80;1.00
10304;DHT22;5197;48.152;8.590;2024-02-26T15:20:20;10.70;1.00
10304;DHT22;5197;48.152;8.590;2024-02-26T15:23:06;10.60;1.00
10304;DHT22;5197;48.152;8.590;2024-02-26T15:25:52;10.50;1.00
10304;DHT22;5197;48.152;8.590;2024-02-26T15:28:38;10.40;1.00
10304;DHT22;5197;48.152;8.590;2024-02-26T15:31:24;10.30;1.00
10304;DHT22;5197;48.152;8.590;2024-02-26T15:34:10;10.20;1.00
10304;DHT22;5197;48.152;8.590;2024-02-26T15:36:55;10.20;1.00
10304;DHT22;5197;48.152;8.590;2024-02-26T15:39:41;10.20;1.00
10304;DHT22;5197;48.152;8.590;2024-02-26T15:42:27;10.10;1.00
10304;DHT22;5197;48.152;8.590;2024-02-26T15:45:13;10.10;1.00
10304;DHT22;5197;48.152;8.590;2024-02-26T15:47:58;10.10;1.00
10304;DHT22;5197;48.152;8.590;2024-02-26T15:50:44;10.00;1.00
10304;DHT22;5197;48.152;8.590;2024-02-26T15:53:29;10.00;1.00
10304;DHT22;5197;48.152;8.590;2024-02-26T15:56:15;9.90;1.00
10304;DHT22;5197;48.152;8.590;2024-02-26T15:59:02;9.90;1.00
10304;DHT22;5197;48.152;8.590;2024-02-26T16:01:47;9.90;1.00
10304;DHT22;5197;48.152;8.590;2024-02-26T16:04:34;9.90;1.00
10304;DHT22;5197;48.152;8.590;2024-02-26T16:07:29;9.90;1.00
10304;DHT22;5197;48.152;8.590;2024-02-26T16:10:17;9.90;1.00
10304;DHT22;5197;48.152;8.590;2024-02-26T16:13:04;9.80;1.00
10304;DHT22;5197;48.152;8.590;2024-02-26T16:16:09;9.80;1.00
10304;DHT22;5197;48.152;8.590;2024-02-26T16:19:06;9.80;1.00
10304;DHT22;5197;48.152;8.590;2024-02-26T16:21:53;9.80;1.00
10304;DHT22;5197;48.152;8.590;2024-02-26T16:24:39;9.80;1.00
10304;DHT22;5197;48.152;8.590;2024-02-26T16:27:24;9.80;1.00
10304;DHT22;5197;48.152;8.590;2024-02-26T16:30:10;9.80;1.00
10304;DHT22;5197;48.152;8.590;2024-02-26T16:32:57;9.80;1.00
10304;DHT22;5197;48.152;8.590;2024-02-26T16:35:43;9.80;1.00
10304;DHT22;5197;48.152;8.590;2024-02-26T16:38:29;9.80;1.00
10304;DHT22;5197;48.152;8.590;2024-02-26T16:41:14;9.80;1.00
10304;DHT22;5197;48.152;8.590;2024-02-26T16:44:00;9.80;1.00
10304;DHT22;5197;48.152;8.590;2024-02-26T16:46:46;9.70;1.00
10304;DHT22;5197;48.152;8.590;2024-02-26T16:49:32;9.70;1.00
10304;DHT22;5197;48.152;8.590;2024-02-26T16:52:17;10.00;1.00
10304;DHT22;5197;48.152;8.590;2024-02-26T16:55:04;9.80;1.00
10304;DHT22;5197;48.152;8.590;2024-02-26T16:57:51;9.80;1.00
10304;DHT22;5197;48.152;8.590;2024-02-26T17:00:36;9.80;1.00
10304;DHT22;5197;48.152;8.590;2024-02-26T17:03:22;9.80;1.00
10304;DHT22;5197;48.152;8.590;2024-02-26T17:06:08;9.90;1.00
10304;DHT22;5197;48.152;8.590;2024-02-26T17:08:54;9.90;1.00
10304;DHT22;5197;48.152;8.590;2024-02-26T17:11:40;10.00;1.00
10304;DHT22;5197;48.152;8.590;2024-02-26T17:14:26;9.90;1.00
10304;DHT22;5197;48.152;8.590;2024-02-26T17:17:16;9.80;1.00
10304;DHT22;5197;48.152;8.590;2024-02-26T17:20:03;9.80;1.00
10304;DHT22;5197;48.152;8.590;2024-02-26T17:22:49;9.80;1.00
10304;DHT22;5197;48.152;8.590;2024-02-26T17:25:35;9.80;1.00
10304;DHT22;5197;48.152;8.590;2024-02-26T17:28:21;9.70;1.00
10304;DHT22;5197;48.152;8.590;2024-02-26T17:31:06;9.70;1.00
10304;DHT22;5197;48.152;8.590;2024-02-26T17:33:52;9.70;1.00
10304;DHT22;5197;48.152;8.590;2024-02-26T17:36:38;9.70;1.00
10304;DHT22;5197;48.152;8.590;2024-02-26T17:39:24;9.70;1.00
10304;DHT22;5197;48.152;8.590;2024-02-26T17:42:10;9.70;1.00
10304;DHT22;5197;48.152;8.590;2024-02-26T17:44:55;9.60;1.00
10304;DHT22;5197;48.152;8.590;2024-02-26T17:47:41;9.60;1.00
10304;DHT22;5197;48.152;8.590;2024-02-26T17:50:26;9.50;1.00
10304;DHT22;5197;48.152;8.590;2024-02-26T17:53:12;9.50;1.00
10304;DHT22;5197;48.152;8.590;2024-02-26T17:55:59;9.50;1.00
10304;DHT22;5197;48.152;8.590;2024-02-26T17:58:51;9.40;1.00
10304;DHT22;5197;48.152;8.590;2024-02-26T18:01:37;9.40;1.00
10304;DHT22;5197;48.152;8.590;2024-02-26T18:04:22;9.40;1.00
10304;DHT22;5197;48.152;8.590;2024-02-26T18:07:08;9.30;1.00
10304;DHT22;5197;48.152;8.590;2024-02-26T18:09:54;9.30;1.00
10304;DHT22;5197;48.152;8.590;2024-02-26T18:12:39;9.20;1.00
10304;DHT22;5197;48.152;8.590;2024-02-26T18:15:26;9.10;1.00
10304;DHT22;5197;48.152;8.590;2024-02-26T18:18:15;9.00;1.00
10304;DHT22;5197;48.152;8.590;2024-02-26T18:21:02;9.00;1.00
10304;DHT22;5197;48.152;8.590;2024-02-26T18:23:48;9.00;1.00
10304;DHT22;5197;48.152;8.590;2024-02-26T18:26:33;8.90;1.00